logo
Search for airport 
image banner adimage banner adimage banner ad
image banner ad

MMPBO - Bonfil

Located in San Luis Rio Colorado, Mexico

ICAO - , IATA -

Data provided by Airmate  

General information

Coordinates: N32°18'3" W114°58'30"
Elevation is 229 feet MSL.
Magnetic variation is 10° East
View others Airports in Sonora

Operational data

Special qualification required
Current time UTC:
Current local time:
METAR: MMML 180540Z 00000KT 10SM SCT200 22/02 A2987 RMK SLP115 52017 967 8/008
TAF: TAF MMML 180532Z 1806/1906 18005KT P6SM SKC FM181500 30010KT P6SM SCT040 FM190000 00000KT P6SM BKN040
View NOTAMs / SUP AIP / TFR affecting this airport [VIEW]
Communications frequencies: [VIEW]

Runways:

Airport contact information

Address: San Luis Rio Colorado Mexico

Satellite view of MMPBO